Impacts METAR Board
IDs:

KACT - Waco Rgnl, TX, US

Updated at: 0900 UTC 13 Aug 2022
Potential Impact None Slight Moderate High
Time 12/21Z 12/22Z 12/23Z 13/00Z 13/01Z 13/02Z 13/03Z 13/04Z 13/05Z 13/06Z 13/07Z 13/08Z 13/09Z
Temp97 97 99 98 95 91 89 88 85 85 84 82 79
Dewpt65 66 65 66 66 68 68 69 70 70 71 71 70
Altim29.95 29.94 29.93 29.92 29.93 29.95 29.97 29.99 30.00 30.00 30.00 30.00 30.00
VIS10 10 10 10 10 10 10 10 10 10 10 10 10
CIG65 110 -- -- -- -- -- -- -- -- 60 -- --
CoverBKNBKNFEWFEWFEWSCTCLRCLRFEWSCTOVCCLRCLR
FltCatVFRVFRVFRVFRVFRVFRVFRVFRVFRVFRVFRVFRVFR
WX--------------------------
WDir705030708012011010011000100360
WSpd7 12 8 7 7 7 7 8 5 0 0 3 3
WGst17 17 -- -- -- -- -- -- -- -- -- -- --
Raw hourly METARs
KACT 122051Z 07007G17KT 10SM BKN065 BKN100 36/18 A2995 RMK AO2 SLP132 T03610183
KACT 122151Z 05012G17KT 10SM SCT070 BKN110 36/19 A2994 RMK AO2 SLP129 T03610189
KACT 122251Z 03008KT 10SM FEW070 FEW120 37/18 A2993 RMK AO2 SLP124 T03720183
KACT 122351Z 07007KT 10SM FEW070 37/19 A2992 RMK AO2 SLP123 T03670189 10383 20344 56008
KACT 130051Z 08007KT 10SM FEW070 35/19 A2993 RMK AO2 SLP126 T03500189
KACT 130151Z 12007KT 10SM FEW070 SCT100 33/20 A2995 RMK AO2 SLP132 T03280200
KACT 130251Z 11007KT 10SM CLR 32/20 A2997 RMK AO2 SLP138 T03170200 53014
KACT 130351Z AUTO 10008KT 10SM CLR 31/21 A2999 RMK AO2 SLP145 T03110206
KACT 130451Z 11005KT 10SM FEW100 29/21 A3000 RMK AO2 SLP148 T02940211
KACT 130551Z AUTO 00000KT 10SM SCT060 29/21 A3000 RMK AO2 SLPNO T02940211 10367 20289 403830244 51013
KACT 130651Z AUTO 00000KT 10SM BKN060 OVC075 29/22 A3000 RMK AO2 SLP150 T02890217
KACT 130751Z AUTO 10003KT 10SM CLR 28/22 A3000 RMK AO2 SLP151 T02780217
KACT 130851Z AUTO 36003KT 10SM CLR 26/21 A3000 RMK AO2 SLP151 T02610211 53000